createdAt,value
2023-03-21T00:00:41.003Z,98714.94
2023-03-21T00:03:07.817Z,98723.47
2023-03-21T00:05:34.699Z,98713.47
2023-03-21T00:08:02.728Z,98713.97
2023-03-21T00:10:39.813Z,98709.69
2023-03-21T00:13:13.072Z,98710.34
2023-03-21T00:16:01.917Z,98704.28
2023-03-21T00:18:31.673Z,98708.38
2023-03-21T00:21:35.601Z,98709.84
2023-03-21T00:23:50.265Z,98703.97
2023-03-21T00:26:17.181Z,98705.72
2023-03-21T00:28:44.152Z,98701.66
2023-03-21T00:31:11.286Z,98696.91
2023-03-21T00:33:39.122Z,98696.09
2023-03-21T00:36:07.545Z,98693.28
2023-03-21T00:38:34.874Z,98689.97
2023-03-21T00:41:14.272Z,98689.00
2023-03-21T00:43:46.202Z,98682.59
2023-03-21T00:46:12.678Z,98681.66
2023-03-21T00:48:39.305Z,98679.66
2023-03-21T00:51:15.477Z,98682.97
2023-03-21T00:53:42.391Z,98675.91
2023-03-21T00:56:09.392Z,98671.97
2023-03-21T00:58:36.048Z,98671.00
2023-03-21T01:01:02.661Z,98663.94
2023-03-21T01:03:29.193Z,98657.38
2023-03-21T01:06:05.507Z,98657.69
2023-03-21T01:08:48.582Z,98660.69
2023-03-21T01:11:20.624Z,98654.94
2023-03-21T01:13:54.587Z,98655.25
2023-03-21T01:16:25.349Z,98651.34
2023-03-21T01:18:52.412Z,98651.53
2023-03-21T01:21:19.635Z,98656.59
2023-03-21T01:23:46.296Z,98651.50
2023-03-21T01:26:13.694Z,98649.84
2023-03-21T01:28:42.528Z,98657.69
2023-03-21T01:31:11.435Z,98657.22
2023-03-21T01:33:38.612Z,98645.44
2023-03-21T01:36:12.752Z,98648.22
2023-03-21T01:38:41.694Z,98653.78
2023-03-21T01:41:20.134Z,98641.66
2023-03-21T01:43:47.715Z,98642.47
2023-03-21T01:47:04.014Z,98641.66
2023-03-21T01:49:49.528Z,98635.44
2023-03-21T01:52:37.514Z,98641.03
2023-03-21T01:55:18.943Z,98643.47
2023-03-21T01:58:06.785Z,98636.09
2023-03-21T02:00:51.213Z,98633.47
2023-03-21T02:03:35.939Z,98633.63
2023-03-21T02:06:38.256Z,98630.03
2023-03-21T02:09:16.377Z,98618.88
2023-03-21T02:11:46.505Z,98620.84
2023-03-21T02:14:26.636Z,98620.34
2023-03-21T02:17:28.369Z,98614.78
2023-03-21T02:20:25.270Z,98613.97
2023-03-21T02:23:01.709Z,98610.69
2023-03-21T02:25:48.800Z,98609.88
2023-03-21T02:28:27.863Z,98607.56
2023-03-21T02:31:28.751Z,98599.22
2023-03-21T02:34:13.217Z,98601.53
2023-03-21T02:37:01.168Z,98597.09
2023-03-21T02:39:56.076Z,98593.84
2023-03-21T02:42:44.949Z,98592.69
2023-03-21T02:45:20.471Z,98590.72
2023-03-21T02:48:25.373Z,98582.06
2023-03-21T02:50:58.915Z,98582.34
2023-03-21T02:53:31.655Z,98583.34
2023-03-21T02:56:00.901Z,98583.50
2023-03-21T02:58:32.189Z,98572.19
2023-03-21T03:00:59.974Z,98567.22
2023-03-21T03:03:35.160Z,98581.81
2023-03-21T03:06:13.427Z,98581.13
2023-03-21T03:09:02.294Z,98582.31
2023-03-21T03:11:43.112Z,98581.97
2023-03-21T03:14:38.550Z,98578.44
2023-03-21T03:17:03.221Z,98572.56
2023-03-21T03:19:44.640Z,98573.72
2023-03-21T03:22:26.228Z,98567.84
2023-03-21T03:25:04.766Z,98567.00
2023-03-21T03:27:43.936Z,98568.06
2023-03-21T03:30:12.733Z,98575.22
2023-03-21T03:32:48.525Z,98573.50
2023-03-21T03:35:18.054Z,98573.38
2023-03-21T03:37:51.389Z,98575.75
2023-03-21T03:40:26.087Z,98579.19
2023-03-21T03:43:10.324Z,98581.59
2023-03-21T03:45:47.704Z,98575.41
2023-03-21T03:48:29.723Z,98585.38
2023-03-21T03:51:27.507Z,98580.38
2023-03-21T03:54:12.828Z,98589.88
2023-03-21T03:56:40.620Z,98583.31
2023-03-21T03:59:09.973Z,98592.53
2023-03-21T04:01:59.045Z,98595.22
2023-03-21T04:04:28.558Z,98590.81
2023-03-21T04:06:57.959Z,98592.16
2023-03-21T04:09:42.744Z,98594.47
2023-03-21T04:12:10.122Z,98598.38
2023-03-21T04:14:44.326Z,98590.19
2023-03-21T04:17:12.673Z,98590.03
2023-03-21T04:19:39.176Z,98589.91
2023-03-21T04:22:06.483Z,98587.59
2023-03-21T04:24:39.422Z,98585.91
2023-03-21T04:27:06.286Z,98578.81
2023-03-21T04:29:40.803Z,98574.53
2023-03-21T04:32:26.563Z,98573.44
2023-03-21T04:35:03.166Z,98571.03
2023-03-21T04:37:33.793Z,98572.69
2023-03-21T04:40:02.653Z,98577.59
2023-03-21T04:42:29.758Z,98575.50
2023-03-21T04:44:56.352Z,98571.22
2023-03-21T04:47:24.058Z,98572.69
2023-03-21T04:49:51.629Z,98566.97
2023-03-21T04:52:18.122Z,98574.66
2023-03-21T04:54:44.759Z,98567.63
2023-03-21T04:57:11.213Z,98563.34
2023-03-21T04:59:37.855Z,98564.03
2023-03-21T05:02:04.377Z,98561.56
2023-03-21T05:04:31.563Z,98559.59
2023-03-21T05:06:58.800Z,98562.53
2023-03-21T05:09:27.732Z,98562.22
2023-03-21T05:11:54.259Z,98561.09
2023-03-21T05:14:23.723Z,98567.78
2023-03-21T05:16:56.262Z,98563.34
2023-03-21T05:19:34.961Z,98567.13
2023-03-21T05:22:09.216Z,98564.00
2023-03-21T05:24:41.669Z,98566.06
2023-03-21T05:27:14.162Z,98557.91
2023-03-21T05:29:44.831Z,98547.91
2023-03-21T05:32:11.481Z,98548.75
2023-03-21T05:34:38.776Z,98552.03
2023-03-21T05:37:05.589Z,98549.09
2023-03-21T05:39:47.979Z,98551.72
2023-03-21T05:42:22.681Z,98540.88
2023-03-21T05:44:49.477Z,98545.88
2023-03-21T05:47:19.581Z,98547.34
2023-03-21T05:49:47.357Z,98549.63
2023-03-21T05:52:14.626Z,98554.88
2023-03-21T05:54:41.123Z,98553.44
2023-03-21T05:57:07.718Z,98554.88
2023-03-21T05:59:57.059Z,98551.16
2023-03-21T06:02:23.567Z,98548.03
2023-03-21T06:04:51.150Z,98548.88
2023-03-21T06:07:21.220Z,98561.16
2023-03-21T06:09:47.723Z,98552.69
2023-03-21T06:12:14.481Z,98550.69
2023-03-21T06:15:01.802Z,98553.34
2023-03-21T06:17:32.643Z,98560.59
2023-03-21T06:20:06.874Z,98567.13
2023-03-21T06:22:39.622Z,98564.31
2023-03-21T06:25:07.857Z,98571.84
2023-03-21T06:27:35.471Z,98565.41
2023-03-21T06:30:02.373Z,98573.38
2023-03-21T06:32:36.047Z,98575.78
2023-03-21T06:35:09.778Z,98584.78
2023-03-21T06:37:38.265Z,98578.66
2023-03-21T06:40:06.130Z,98579.03
2023-03-21T06:42:32.786Z,98577.44
2023-03-21T06:45:06.979Z,98576.47
2023-03-21T06:47:33.642Z,98571.28
2023-03-21T06:50:02.422Z,98567.34
2023-03-21T06:52:31.664Z,98565.66
2023-03-21T06:54:58.165Z,98569.47
2023-03-21T06:57:25.609Z,98575.56
2023-03-21T06:59:52.611Z,98566.31
2023-03-21T07:02:21.401Z,98573.38
2023-03-21T07:04:57.699Z,98576.03
2023-03-21T07:07:29.658Z,98577.41
2023-03-21T07:09:56.651Z,98571.13
2023-03-21T07:12:24.170Z,98570.72
2023-03-21T07:15:07.167Z,98581.09
2023-03-21T07:17:34.314Z,98568.41
2023-03-21T07:20:00.772Z,98567.78
2023-03-21T07:22:28.272Z,98559.53
2023-03-21T07:25:04.395Z,98573.38
2023-03-21T07:27:39.149Z,98568.06
2023-03-21T07:30:07.996Z,98570.16
2023-03-21T07:32:35.319Z,98567.22
2023-03-21T07:35:02.134Z,98573.88
2023-03-21T07:37:28.675Z,98565.78
2023-03-21T07:39:56.529Z,98571.38
2023-03-21T07:42:24.756Z,98567.28
2023-03-21T07:44:58.454Z,98569.91
2023-03-21T07:47:24.979Z,98559.69
2023-03-21T07:49:51.568Z,98561.88
2023-03-21T07:52:18.067Z,98561.03
2023-03-21T07:54:44.549Z,98560.84
2023-03-21T07:57:13.564Z,98562.22
2023-03-21T07:59:40.309Z,98572.22
2023-03-21T08:02:07.259Z,98563.13
2023-03-21T08:04:37.616Z,98564.38
2023-03-21T08:07:04.166Z,98569.41
2023-03-21T08:09:31.411Z,98563.13
2023-03-21T08:11:58.138Z,98565.66
2023-03-21T08:14:24.677Z,98567.69
2023-03-21T08:16:51.400Z,98569.44
2023-03-21T08:19:20.708Z,98571.66
2023-03-21T08:21:49.495Z,98570.56
2023-03-21T08:24:16.446Z,98576.47
2023-03-21T08:26:44.310Z,98576.84
2023-03-21T08:29:10.895Z,98569.16
2023-03-21T08:31:37.572Z,98558.84
2023-03-21T08:34:04.139Z,98563.06
2023-03-21T08:36:31.546Z,98563.75
2023-03-21T08:39:05.245Z,98568.03
2023-03-21T08:41:33.055Z,98567.78
2023-03-21T08:43:59.608Z,98563.19
2023-03-21T08:46:26.849Z,98561.72
2023-03-21T08:48:54.375Z,98564.78
2023-03-21T08:51:21.726Z,98565.69
2023-03-21T08:53:50.978Z,98561.88
2023-03-21T08:56:18.316Z,98564.38
2023-03-21T08:58:45.048Z,98566.84
2023-03-21T09:01:15.723Z,98561.28
2023-03-21T09:03:43.151Z,98560.53
2023-03-21T09:06:12.237Z,98560.31
2023-03-21T09:08:39.250Z,98557.03
2023-03-21T09:11:06.141Z,98550.63
2023-03-21T09:13:32.658Z,98552.47
2023-03-21T09:16:01.336Z,98551.41
2023-03-21T09:18:49.002Z,98552.09
2023-03-21T09:21:18.191Z,98559.34
2023-03-21T09:23:44.976Z,98550.88
2023-03-21T09:26:13.294Z,98550.97
2023-03-21T09:28:40.618Z,98553.25
2023-03-21T09:31:12.271Z,98557.53
2023-03-21T09:33:42.383Z,98552.81
2023-03-21T09:36:14.633Z,98552.38
2023-03-21T09:38:45.458Z,98549.72
2023-03-21T09:41:37.608Z,98550.56
2023-03-21T09:44:19.344Z,98557.81
2023-03-21T09:47:02.705Z,98562.66
2023-03-21T09:49:34.873Z,98554.28
2023-03-21T09:52:07.965Z,98560.38
2023-03-21T09:54:42.989Z,98559.31
2023-03-21T09:57:31.879Z,98554.06
2023-03-21T10:00:08.552Z,98550.69
2023-03-21T10:02:47.140Z,98547.97
2023-03-21T10:05:22.099Z,98551.41
2023-03-21T10:08:09.229Z,98539.19
2023-03-21T10:10:39.724Z,98544.13
2023-03-21T10:13:15.667Z,98544.53
2023-03-21T10:15:42.419Z,98541.88
2023-03-21T10:18:14.189Z,98538.84
2023-03-21T10:20:42.528Z,98536.19
2023-03-21T10:23:14.972Z,98540.66
2023-03-21T10:25:46.355Z,98538.63
2023-03-21T10:28:20.827Z,98531.88
2023-03-21T10:30:55.487Z,98532.31
2023-03-21T10:33:26.376Z,98528.28
2023-03-21T10:35:59.645Z,98524.84
2023-03-21T10:38:27.051Z,98521.16
2023-03-21T10:40:54.230Z,98523.75
2023-03-21T10:43:31.020Z,98521.69
2023-03-21T10:45:57.701Z,98514.28
2023-03-21T10:48:24.586Z,98516.41
2023-03-21T10:50:54.219Z,98508.47
2023-03-21T10:53:26.933Z,98499.13
2023-03-21T10:55:57.614Z,98502.88
2023-03-21T10:58:33.348Z,98504.47
2023-03-21T11:01:07.725Z,98499.19
2023-03-21T11:03:43.539Z,98502.03
2023-03-21T11:06:22.481Z,98491.66
2023-03-21T11:08:53.951Z,98490.16
2023-03-21T11:11:27.595Z,98492.41
2023-03-21T11:14:07.871Z,98487.16
2023-03-21T11:16:41.194Z,98490.00
2023-03-21T11:19:20.666Z,98490.47
2023-03-21T11:21:47.649Z,98485.59
2023-03-21T11:24:17.456Z,98482.56
2023-03-21T11:26:49.731Z,98482.34
2023-03-21T11:29:40.434Z,98483.06
2023-03-21T11:32:27.191Z,98476.81
2023-03-21T11:34:59.555Z,98472.97
2023-03-21T11:37:39.294Z,98473.13
2023-03-21T11:40:22.091Z,98476.16
2023-03-21T11:42:54.498Z,98467.94
2023-03-21T11:45:24.311Z,98468.59
2023-03-21T11:47:54.262Z,98464.69
2023-03-21T11:50:41.573Z,98463.28
2023-03-21T11:53:39.562Z,98466.06
2023-03-21T11:56:25.034Z,98457.66
2023-03-21T11:58:58.599Z,98455.38
2023-03-21T12:01:30.706Z,98459.38
2023-03-21T12:04:11.528Z,98448.88
2023-03-21T12:06:44.515Z,98450.19
2023-03-21T12:09:34.411Z,98449.88
2023-03-21T12:12:15.259Z,98447.16
2023-03-21T12:14:44.632Z,98452.13
2023-03-21T12:17:38.522Z,98455.22
2023-03-21T12:20:11.249Z,98446.47
2023-03-21T12:23:06.148Z,98449.53
2023-03-21T12:25:42.132Z,98447.28
2023-03-21T12:28:16.913Z,98446.63
2023-03-21T12:31:29.920Z,98446.63
2023-03-21T12:34:13.654Z,98445.19
2023-03-21T12:37:07.332Z,98438.88
2023-03-21T12:39:36.735Z,98435.88
2023-03-21T12:42:42.039Z,98428.88
2023-03-21T12:45:27.532Z,98428.34
2023-03-21T12:48:06.662Z,98422.25
2023-03-21T12:50:37.399Z,98413.72
2023-03-21T12:53:31.578Z,98423.69
2023-03-21T12:56:02.918Z,98418.81
2023-03-21T12:58:33.099Z,98419.47
2023-03-21T13:01:01.958Z,98414.78
2023-03-21T13:03:45.295Z,98416.19
2023-03-21T13:06:15.453Z,98426.13
2023-03-21T13:08:49.821Z,98425.09
2023-03-21T13:11:21.643Z,98427.13
2023-03-21T13:14:04.317Z,98417.34
2023-03-21T13:16:42.292Z,98417.25
2023-03-21T13:19:15.821Z,98411.00
2023-03-21T13:22:06.093Z,98404.41
2023-03-21T13:24:54.906Z,98394.03
2023-03-21T13:27:24.833Z,98391.97
2023-03-21T13:30:06.436Z,98383.00
2023-03-21T13:32:39.759Z,98380.16
2023-03-21T13:35:09.697Z,98376.44
2023-03-21T13:37:42.048Z,98377.13
2023-03-21T13:40:23.096Z,98375.50
2023-03-21T13:42:56.899Z,98373.88
2023-03-21T13:45:44.690Z,98358.00
2023-03-21T13:48:58.611Z,98339.09
2023-03-21T13:51:28.863Z,98339.03
2023-03-21T13:54:03.225Z,98346.56
2023-03-21T13:56:47.764Z,98361.28
2023-03-21T13:59:19.334Z,98370.44
2023-03-21T14:02:23.161Z,98347.88
2023-03-21T14:05:05.378Z,98332.59
2023-03-21T14:07:42.467Z,98314.09
2023-03-21T14:10:20.316Z,98309.41
2023-03-21T14:12:47.514Z,98326.31
2023-03-21T14:15:21.527Z,98321.84
2023-03-21T14:17:55.380Z,98334.47
2023-03-21T14:20:24.366Z,98325.28
2023-03-21T14:22:51.085Z,98316.47
2023-03-21T14:25:20.558Z,98320.75
2023-03-21T14:27:50.807Z,98337.31
2023-03-21T14:30:30.281Z,98344.19
2023-03-21T14:32:59.257Z,98342.38
2023-03-21T14:35:31.329Z,98335.47
2023-03-21T14:38:01.337Z,98333.63
2023-03-21T14:40:29.056Z,98323.69
2023-03-21T14:42:55.972Z,98324.69
2023-03-21T14:45:28.230Z,98324.06
2023-03-21T14:47:59.816Z,98332.03
2023-03-21T14:50:57.160Z,98310.84
2023-03-21T14:53:29.154Z,98289.50
2023-03-21T14:56:03.784Z,98268.53
2023-03-21T14:58:31.138Z,98254.94
2023-03-21T15:01:01.974Z,98248.84
2023-03-21T15:03:28.552Z,98262.84
2023-03-21T15:05:55.966Z,98280.72
2023-03-21T15:08:28.732Z,98284.56
2023-03-21T15:11:07.742Z,98288.44
2023-03-21T15:13:42.456Z,98289.88
2023-03-21T15:16:11.202Z,98291.88
2023-03-21T15:18:39.824Z,98285.16
2023-03-21T15:21:12.539Z,98273.09
2023-03-21T15:23:43.081Z,98268.81
2023-03-21T15:26:16.522Z,98271.84
2023-03-21T15:28:46.810Z,98266.59
2023-03-21T15:31:19.848Z,98281.19
2023-03-21T15:33:52.082Z,98268.97
2023-03-21T15:36:27.663Z,98274.69
2023-03-21T15:38:55.676Z,98277.66
2023-03-21T15:41:28.807Z,98277.91
2023-03-21T15:44:10.125Z,98279.34
2023-03-21T15:46:43.537Z,98284.84
2023-03-21T15:49:31.602Z,98286.84
2023-03-21T15:52:06.911Z,98278.38
2023-03-21T15:54:41.224Z,98280.09
2023-03-21T15:57:21.659Z,98273.59
2023-03-21T15:59:48.956Z,98268.69
2023-03-21T16:02:19.865Z,98280.13
2023-03-21T16:05:01.636Z,98279.50
2023-03-21T16:07:28.776Z,98276.28
2023-03-21T16:10:04.567Z,98279.50
2023-03-21T16:12:31.115Z,98273.44
2023-03-21T16:14:57.623Z,98274.44
2023-03-21T16:17:30.177Z,98274.66
2023-03-21T16:19:56.676Z,98273.41
2023-03-21T16:22:23.171Z,98268.34
2023-03-21T16:24:49.670Z,98270.78
2023-03-21T16:27:18.739Z,98265.06
2023-03-21T16:29:45.249Z,98260.38
2023-03-21T16:32:16.749Z,98267.94
2023-03-21T16:34:43.370Z,98261.63
2023-03-21T16:37:11.782Z,98256.16
2023-03-21T16:39:38.468Z,98265.31
2023-03-21T16:42:05.020Z,98265.50
2023-03-21T16:44:31.786Z,98258.00
2023-03-21T16:46:59.838Z,98262.28
2023-03-21T16:49:28.303Z,98261.66
2023-03-21T16:51:56.269Z,98263.09
2023-03-21T16:54:23.144Z,98265.91
2023-03-21T16:56:52.125Z,98264.72
2023-03-21T16:59:19.038Z,98263.09
2023-03-21T17:01:47.644Z,98271.44
2023-03-21T17:04:16.003Z,98260.88
2023-03-21T17:06:51.038Z,98249.50
2023-03-21T17:09:21.615Z,98240.34
2023-03-21T17:11:48.293Z,98245.22
2023-03-21T17:14:21.080Z,98244.00
2023-03-21T17:16:48.686Z,98240.13
2023-03-21T17:19:21.578Z,98248.06
2023-03-21T17:21:53.952Z,98240.94
2023-03-21T17:24:20.467Z,98242.53
2023-03-21T17:26:46.929Z,98242.31
2023-03-21T17:29:14.813Z,98248.66
2023-03-21T17:31:41.363Z,98234.22
2023-03-21T17:34:08.434Z,98247.00
2023-03-21T17:36:37.626Z,98244.75
2023-03-21T17:39:06.565Z,98253.44
2023-03-21T17:41:33.386Z,98257.06
2023-03-21T17:43:59.856Z,98252.16
2023-03-21T17:46:29.131Z,98260.41
2023-03-21T17:48:56.692Z,98261.81
2023-03-21T17:51:26.031Z,98259.13
2023-03-21T17:53:52.580Z,98265.56
2023-03-21T17:56:31.632Z,98268.00
2023-03-21T17:59:04.740Z,98263.13
2023-03-21T18:01:31.682Z,98262.66
2023-03-21T18:04:02.074Z,98272.13
2023-03-21T18:06:28.572Z,98274.50
2023-03-21T18:08:55.335Z,98283.13
2023-03-21T18:11:22.905Z,98279.59
2023-03-21T18:13:49.797Z,98274.97
2023-03-21T18:16:22.749Z,98283.28
2023-03-21T18:18:50.951Z,98281.22
2023-03-21T18:21:20.264Z,98281.47
2023-03-21T18:23:47.342Z,98287.50
2023-03-21T18:26:17.630Z,98283.06
2023-03-21T18:28:44.834Z,98283.06
2023-03-21T18:31:19.879Z,98282.63
2023-03-21T18:33:48.904Z,98284.66
2023-03-21T18:36:25.400Z,98286.06
2023-03-21T18:38:52.742Z,98293.69
2023-03-21T18:41:19.797Z,98290.44
2023-03-21T18:44:05.596Z,98300.09
2023-03-21T18:46:33.288Z,98297.69
2023-03-21T18:49:19.940Z,98304.47
2023-03-21T18:51:47.097Z,98300.41
2023-03-21T18:54:13.633Z,98300.97
2023-03-21T18:59:28.659Z,98305.94
2023-03-21T19:01:55.116Z,98308.41
2023-03-21T19:04:29.364Z,98316.44
2023-03-21T19:06:58.119Z,98308.19
2023-03-21T19:09:31.133Z,98303.56
2023-03-21T19:11:58.105Z,98307.53
2023-03-21T19:14:24.616Z,98306.38
2023-03-21T19:19:38.698Z,98310.97
2023-03-21T19:22:05.176Z,98309.19
2023-03-21T19:24:31.791Z,98312.41
2023-03-21T19:26:58.407Z,98304.69
2023-03-21T19:29:25.788Z,98310.25
2023-03-21T19:31:52.877Z,98315.41
2023-03-21T19:34:19.621Z,98298.25
2023-03-21T19:36:51.411Z,98296.16
2023-03-21T19:39:21.907Z,98297.16
2023-03-21T19:41:48.794Z,98299.47
2023-03-21T19:44:15.377Z,98311.75
2023-03-21T19:46:42.114Z,98316.53
2023-03-21T19:49:08.653Z,98317.16
2023-03-21T19:51:35.663Z,98318.72
2023-03-21T19:54:05.008Z,98317.09
2023-03-21T19:56:31.999Z,98305.03
2023-03-21T19:58:59.619Z,98306.75
2023-03-21T20:01:26.435Z,98304.03
2023-03-21T20:03:53.358Z,98312.81
2023-03-21T20:06:23.306Z,98310.03
2023-03-21T20:11:43.176Z,98314.91
2023-03-21T20:14:09.769Z,98312.63
2023-03-21T20:16:36.974Z,98316.94
2023-03-21T20:19:10.121Z,98315.94
2023-03-21T20:21:48.156Z,98317.03
2023-03-21T20:24:16.902Z,98315.31
2023-03-21T20:26:45.118Z,98313.03
2023-03-21T20:30:03.794Z,98317.38
2023-03-21T20:31:58.209Z,98316.47
2023-03-21T20:34:24.712Z,98316.94
2023-03-21T20:36:51.461Z,98325.19
2023-03-21T20:39:17.957Z,98331.47
2023-03-21T20:41:44.428Z,98323.97
2023-03-21T20:46:57.579Z,98324.47
2023-03-21T20:49:24.826Z,98322.34
2023-03-21T20:54:38.491Z,98315.41
2023-03-21T20:57:05.349Z,98311.34
2023-03-21T20:59:32.552Z,98316.13
2023-03-21T21:01:59.994Z,98314.78
2023-03-21T21:04:48.228Z,98309.13
2023-03-21T21:07:17.559Z,98322.25
2023-03-21T21:09:45.072Z,98318.28
2023-03-21T21:12:13.210Z,98325.03
2023-03-21T21:14:40.695Z,98318.34
2023-03-21T21:17:24.633Z,98318.72
2023-03-21T21:19:54.311Z,98325.28
2023-03-21T21:22:20.932Z,98333.28
2023-03-21T21:24:47.890Z,98330.31
2023-03-21T21:27:14.371Z,98330.63
2023-03-21T21:29:43.177Z,98330.94
2023-03-21T21:32:10.134Z,98333.72
2023-03-21T21:34:37.377Z,98333.41
2023-03-21T21:37:03.813Z,98335.38
2023-03-21T21:39:35.883Z,98333.59
2023-03-21T21:42:02.508Z,98330.03
2023-03-21T21:44:29.215Z,98331.38
2023-03-21T21:46:57.387Z,98327.47
2023-03-21T21:49:24.183Z,98333.19
2023-03-21T21:51:50.750Z,98317.66
2023-03-21T21:54:18.213Z,98319.75
2023-03-21T21:56:48.409Z,98328.53
2023-03-21T21:59:21.990Z,98325.03
2023-03-21T22:01:51.098Z,98324.63
2023-03-21T22:04:18.039Z,98323.63
2023-03-21T22:06:44.662Z,98323.38
2023-03-21T22:09:11.124Z,98316.88
2023-03-21T22:11:37.579Z,98325.88
2023-03-21T22:14:04.046Z,98321.78
2023-03-21T22:16:30.584Z,98314.25
2023-03-21T22:18:57.153Z,98308.22
2023-03-21T22:21:23.960Z,98314.75
2023-03-21T22:23:50.566Z,98309.44
2023-03-21T22:26:17.090Z,98303.56
2023-03-21T22:28:43.738Z,98302.75
2023-03-21T22:31:15.948Z,98303.53
2023-03-21T22:33:43.595Z,98293.75
2023-03-21T22:36:10.633Z,98295.56
2023-03-21T22:38:38.112Z,98295.72
2023-03-21T22:41:05.893Z,98294.03
2023-03-21T22:43:34.135Z,98290.78
2023-03-21T22:46:05.325Z,98290.41
2023-03-21T22:48:32.434Z,98289.28
2023-03-21T22:51:00.486Z,98286.34
2023-03-21T22:53:27.746Z,98283.19
2023-03-21T22:55:54.567Z,98293.47
2023-03-21T22:58:21.427Z,98290.91
2023-03-21T23:00:48.311Z,98289.84
2023-03-21T23:03:16.704Z,98285.38
2023-03-21T23:05:44.451Z,98285.06
2023-03-21T23:08:11.643Z,98290.22
2023-03-21T23:10:39.572Z,98289.22
2023-03-21T23:13:06.663Z,98279.47
2023-03-21T23:15:33.709Z,98278.88
2023-03-21T23:18:00.536Z,98277.59
2023-03-21T23:20:27.103Z,98281.41
2023-03-21T23:22:53.741Z,98279.59
2023-03-21T23:25:20.530Z,98285.16
2023-03-21T23:27:47.764Z,98284.16
2023-03-21T23:30:14.540Z,98282.16
2023-03-21T23:32:41.376Z,98288.00
2023-03-21T23:35:08.659Z,98281.06
2023-03-21T23:37:35.434Z,98279.72
2023-03-21T23:40:02.189Z,98281.91
2023-03-21T23:42:29.666Z,98275.38
2023-03-21T23:44:57.072Z,98279.22
2023-03-21T23:47:23.720Z,98272.94
2023-03-21T23:49:52.708Z,98274.81
2023-03-21T23:52:19.387Z,98268.22
2023-03-21T23:54:46.155Z,98268.03
2023-03-21T23:57:12.682Z,98264.66
2023-03-21T23:59:39.181Z,98266.47
